createdAt,value
2023-05-19T00:00:18.227Z,71.28
2023-05-19T00:01:19.376Z,71.49
2023-05-19T00:02:19.622Z,71.59
2023-05-19T00:03:19.827Z,71.52
2023-05-19T00:04:18.880Z,71.73
2023-05-19T00:05:18.118Z,71.83
2023-05-19T00:06:18.330Z,71.83
2023-05-19T00:07:19.445Z,71.83
2023-05-19T00:08:19.657Z,71.93
2023-05-19T00:09:18.813Z,71.93
2023-05-19T00:10:17.954Z,72.14
2023-05-19T00:11:18.122Z,72.24
2023-05-19T00:12:19.275Z,72.24
2023-05-19T00:13:18.486Z,72.03
2023-05-19T00:14:20.348Z,72.14
2023-05-19T00:15:17.838Z,72.03
2023-05-19T00:16:18.034Z,72.14
2023-05-19T00:17:19.182Z,72.34
2023-05-19T00:18:19.370Z,72.14
2023-05-19T00:19:18.616Z,71.93
2023-05-19T00:20:17.829Z,71.73
2023-05-19T00:21:17.979Z,71.83
2023-05-19T00:22:19.196Z,71.83
2023-05-19T00:23:19.365Z,71.83
2023-05-19T00:24:17.603Z,72.03
2023-05-19T00:25:18.773Z,72.24
2023-05-19T00:26:19.553Z,72.48
2023-05-19T00:27:19.198Z,72.48
2023-05-19T00:28:19.406Z,72.48
2023-05-19T00:29:18.685Z,72.58
2023-05-19T00:30:18.769Z,72.34
2023-05-19T00:31:18.061Z,72.14
2023-05-19T00:32:18.721Z,71.93
2023-05-19T00:33:18.393Z,71.73
2023-05-19T00:34:17.591Z,71.93
2023-05-19T00:35:18.724Z,71.97
2023-05-19T00:36:17.963Z,71.73
2023-05-19T00:37:18.164Z,71.73
2023-05-19T00:38:19.367Z,71.76
2023-05-19T00:39:17.536Z,71.76
2023-05-19T00:40:17.728Z,71.97
2023-05-19T00:41:17.922Z,72.27
2023-05-19T00:42:19.078Z,72.17
2023-05-19T00:43:19.298Z,72.07
2023-05-19T00:44:17.533Z,71.97
2023-05-19T00:45:17.705Z,71.97
2023-05-19T00:46:17.967Z,72.17
2023-05-19T00:47:18.134Z,72.38
2023-05-19T00:48:17.313Z,72.48
2023-05-19T00:49:17.508Z,72.38
2023-05-19T00:50:18.264Z,72.48
2023-05-19T00:51:17.907Z,72.48
2023-05-19T00:52:18.122Z,72.48
2023-05-19T00:53:17.299Z,72.38
2023-05-19T00:54:18.484Z,72.38
2023-05-19T00:55:17.740Z,72.27
2023-05-19T00:56:37.714Z,72.27
2023-05-19T00:57:18.168Z,72.38
2023-05-19T00:58:17.328Z,71.97
2023-05-19T00:59:17.509Z,71.86
2023-05-19T01:00:17.726Z,72.07
2023-05-19T01:01:18.016Z,71.86
2023-05-19T01:02:17.143Z,71.76
2023-05-19T01:03:17.397Z,71.97
2023-05-19T01:04:17.516Z,71.83
2023-05-19T01:05:17.733Z,71.62
2023-05-19T01:06:17.951Z,71.52
2023-05-19T01:07:17.101Z,71.52
2023-05-19T01:08:19.457Z,71.52
2023-05-19T01:09:17.538Z,71.56
2023-05-19T01:10:17.752Z,71.76
2023-05-19T01:11:17.959Z,71.86
2023-05-19T01:12:18.082Z,71.66
2023-05-19T01:13:17.355Z,71.76
2023-05-19T01:14:17.602Z,71.86
2023-05-19T01:15:17.781Z,71.97
2023-05-19T01:16:16.984Z,72.07
2023-05-19T01:17:17.169Z,71.76
2023-05-19T01:18:17.411Z,71.76
2023-05-19T01:19:17.677Z,71.76
2023-05-19T01:20:18.290Z,71.86
2023-05-19T01:21:17.893Z,71.76
2023-05-19T01:22:17.123Z,71.86
2023-05-19T01:23:17.372Z,72.00
2023-05-19T01:24:17.546Z,72.10
2023-05-19T01:25:17.746Z,72.20
2023-05-19T01:26:16.940Z,72.41
2023-05-19T01:27:18.100Z,72.41
2023-05-19T01:28:17.324Z,72.61
2023-05-19T01:29:17.546Z,72.51
2023-05-19T01:30:17.663Z,72.51
2023-05-19T01:31:16.941Z,72.41
2023-05-19T01:32:17.195Z,72.82
2023-05-19T01:33:17.338Z,72.92
2023-05-19T01:34:17.542Z,72.92
2023-05-19T01:35:16.785Z,73.02
2023-05-19T01:36:17.902Z,73.02
2023-05-19T01:37:17.864Z,73.23
2023-05-19T01:38:17.400Z,73.06
2023-05-19T01:39:17.616Z,73.27
2023-05-19T01:40:16.813Z,73.36
2023-05-19T01:41:17.037Z,73.78
2023-05-19T01:42:18.262Z,73.88
2023-05-19T01:43:18.112Z,73.98
2023-05-19T01:44:16.688Z,74.02
2023-05-19T01:45:16.923Z,74.43
2023-05-19T01:46:17.225Z,74.94
2023-05-19T01:47:17.314Z,74.84
2023-05-19T01:48:17.513Z,75.08
2023-05-19T01:49:16.736Z,75.80
2023-05-19T01:50:16.817Z,76.31
2023-05-19T01:51:17.947Z,76.42
2023-05-19T01:52:17.181Z,76.65
2023-05-19T01:53:17.382Z,76.86
2023-05-19T01:54:16.515Z,76.97
2023-05-19T01:55:16.784Z,76.86
2023-05-19T01:56:16.951Z,77.06
2023-05-19T01:57:17.130Z,77.48
2023-05-19T01:58:17.335Z,77.68
2023-05-19T01:59:16.535Z,77.41
2023-05-19T02:00:16.737Z,77.41
2023-05-19T02:01:16.735Z,77.41
2023-05-19T02:02:17.852Z,77.31
2023-05-19T02:03:18.105Z,77.31
2023-05-19T02:04:16.392Z,77.41
2023-05-19T02:05:16.563Z,77.51
2023-05-19T02:06:16.797Z,77.72
2023-05-19T02:07:17.018Z,77.62
2023-05-19T02:08:17.175Z,77.62
2023-05-19T02:09:17.481Z,77.51
2023-05-19T02:10:16.664Z,77.51
2023-05-19T02:11:17.873Z,77.41
2023-05-19T02:12:17.157Z,77.31
2023-05-19T02:13:16.337Z,77.41
2023-05-19T02:14:17.516Z,77.10
2023-05-19T02:15:16.763Z,77.00
2023-05-19T02:16:17.057Z,76.79
2023-05-19T02:17:17.131Z,76.59
2023-05-19T02:18:16.498Z,76.65
2023-05-19T02:19:16.652Z,76.65
2023-05-19T02:20:17.790Z,76.65
2023-05-19T02:21:18.009Z,76.65
2023-05-19T02:22:17.232Z,76.65
2023-05-19T02:23:16.451Z,76.45
2023-05-19T02:24:16.738Z,76.14
2023-05-19T02:25:16.893Z,75.93
2023-05-19T02:26:16.059Z,75.83
2023-05-19T02:27:16.294Z,75.63
2023-05-19T02:28:16.529Z,75.52
2023-05-19T02:29:16.783Z,75.52
2023-05-19T02:30:15.960Z,75.73
2023-05-19T02:31:20.193Z,75.83
2023-05-19T02:32:16.600Z,75.70
2023-05-19T02:33:16.638Z,75.70
2023-05-19T02:34:16.858Z,75.73
2023-05-19T02:35:16.107Z,75.52
2023-05-19T02:36:16.264Z,75.42
2023-05-19T02:37:16.504Z,75.42
2023-05-19T02:38:16.738Z,75.52
2023-05-19T02:39:15.895Z,75.52
2023-05-19T02:40:16.108Z,75.52
2023-05-19T02:41:16.423Z,75.52
2023-05-19T02:42:16.520Z,75.63
2023-05-19T02:43:16.750Z,75.56
2023-05-19T02:44:15.908Z,75.67
2023-05-19T02:45:16.141Z,75.76
2023-05-19T02:46:16.374Z,76.07
2023-05-19T02:47:16.643Z,76.48
2023-05-19T02:48:15.772Z,76.28
2023-05-19T02:49:15.967Z,75.87
2023-05-19T02:50:17.144Z,76.18
2023-05-19T02:51:17.383Z,76.28
2023-05-19T02:52:16.583Z,75.97
2023-05-19T02:53:15.854Z,75.76
2023-05-19T02:54:17.058Z,75.76
2023-05-19T02:55:16.281Z,75.87
2023-05-19T02:56:16.497Z,75.87
2023-05-19T02:57:15.664Z,75.87
2023-05-19T02:58:15.883Z,75.87
2023-05-19T02:59:16.142Z,75.87
2023-05-19T03:00:16.316Z,75.87
2023-05-19T03:01:15.495Z,76.18
2023-05-19T03:02:15.745Z,76.38
2023-05-19T03:03:16.111Z,76.38
2023-05-19T03:04:16.257Z,76.28
2023-05-19T03:05:16.372Z,76.48
2023-05-19T03:06:15.554Z,76.59
2023-05-19T03:07:15.771Z,76.69
2023-05-19T03:08:15.979Z,76.69
2023-05-19T03:09:16.195Z,77.20
2023-05-19T03:10:15.425Z,77.62
2023-05-19T03:11:16.559Z,78.27
2023-05-19T03:12:16.775Z,78.47
2023-05-19T03:13:16.054Z,78.37
2023-05-19T03:14:17.224Z,78.30
2023-05-19T03:15:15.474Z,78.10
2023-05-19T03:16:15.807Z,78.41
2023-05-19T03:17:15.939Z,78.20
2023-05-19T03:18:16.193Z,78.24
2023-05-19T03:19:15.357Z,78.72
2023-05-19T03:20:15.570Z,78.75
2023-05-19T03:21:15.858Z,78.75
2023-05-19T03:22:15.977Z,79.03
2023-05-19T03:23:16.204Z,79.27
2023-05-19T03:24:15.378Z,79.58
2023-05-19T03:25:15.599Z,79.79
2023-05-19T03:26:15.811Z,79.88
2023-05-19T03:27:16.134Z,79.58
2023-05-19T03:28:15.225Z,79.47
2023-05-19T03:29:16.440Z,79.47
2023-05-19T03:30:16.658Z,79.13
2023-05-19T03:31:16.878Z,78.92
2023-05-19T03:32:15.124Z,78.72
2023-05-19T03:33:15.648Z,78.72
2023-05-19T03:34:15.568Z,78.51
2023-05-19T03:35:15.808Z,78.41
2023-05-19T03:36:16.033Z,78.10
2023-05-19T03:37:16.202Z,77.89
2023-05-19T03:38:15.469Z,78.10
2023-05-19T03:39:15.729Z,78.20
2023-05-19T03:40:15.928Z,78.41
2023-05-19T03:41:15.092Z,78.41
2023-05-19T03:42:15.341Z,78.51
2023-05-19T03:43:15.604Z,78.20
2023-05-19T03:44:15.859Z,78.17
2023-05-19T03:45:14.968Z,78.06
2023-05-19T03:46:15.252Z,78.00
2023-05-19T03:47:15.405Z,78.10
2023-05-19T03:48:15.649Z,78.20
2023-05-19T03:49:18.020Z,78.20
2023-05-19T03:50:15.114Z,78.20
2023-05-19T03:51:16.369Z,78.30
2023-05-19T03:52:15.527Z,78.41
2023-05-19T03:53:15.784Z,78.41
2023-05-19T03:54:14.958Z,78.61
2023-05-19T03:55:15.317Z,79.13
2023-05-19T03:56:15.437Z,79.13
2023-05-19T03:57:15.696Z,79.33
2023-05-19T03:58:14.872Z,79.44
2023-05-19T03:59:16.076Z,79.75
2023-05-19T04:00:15.396Z,79.99
2023-05-19T04:01:15.590Z,79.68
2023-05-19T04:02:14.754Z,79.72
2023-05-19T04:03:15.214Z,79.68
2023-05-19T04:04:15.276Z,79.88
2023-05-19T04:05:15.463Z,79.79
2023-05-19T04:06:14.657Z,79.79
2023-05-19T04:07:14.931Z,79.68
2023-05-19T04:08:16.073Z,79.79
2023-05-19T04:09:15.337Z,79.88
2023-05-19T04:10:15.580Z,79.99
2023-05-19T04:11:15.960Z,80.19
2023-05-19T04:12:17.091Z,80.19
2023-05-19T04:13:15.225Z,80.19
2023-05-19T04:14:15.511Z,80.30
2023-05-19T04:15:14.720Z,80.30
2023-05-19T04:16:14.960Z,80.19
2023-05-19T04:17:15.319Z,80.30
2023-05-19T04:18:15.402Z,80.30
2023-05-19T04:19:14.572Z,80.40
2023-05-19T04:20:15.728Z,80.71
2023-05-19T04:21:15.002Z,80.91
2023-05-19T04:22:15.262Z,81.12
2023-05-19T04:23:15.478Z,81.23
2023-05-19T04:24:14.652Z,81.33
2023-05-19T04:25:14.867Z,81.33
2023-05-19T04:26:16.075Z,81.43
2023-05-19T04:27:15.337Z,81.49
2023-05-19T04:28:14.589Z,81.60
2023-05-19T04:29:15.720Z,81.60
2023-05-19T04:30:16.708Z,81.49
2023-05-19T04:31:15.242Z,81.60
2023-05-19T04:32:14.383Z,81.81
2023-05-19T04:33:14.621Z,81.91
2023-05-19T04:34:14.829Z,81.91
2023-05-19T04:35:15.072Z,81.81
2023-05-19T04:36:14.241Z,81.81
2023-05-19T04:37:14.466Z,81.76
2023-05-19T04:38:14.676Z,81.76
2023-05-19T04:39:14.984Z,81.97
2023-05-19T04:40:15.174Z,81.97
2023-05-19T04:41:14.357Z,81.97
2023-05-19T04:42:14.587Z,81.87
2023-05-19T04:43:14.864Z,81.97
2023-05-19T04:44:15.095Z,82.07
2023-05-19T04:45:17.407Z,82.07
2023-05-19T04:46:14.556Z,81.97
2023-05-19T04:47:14.726Z,82.07
2023-05-19T04:48:14.956Z,82.28
2023-05-19T04:49:14.126Z,82.28
2023-05-19T04:50:14.424Z,82.28
2023-05-19T04:51:14.648Z,82.18
2023-05-19T04:52:14.781Z,82.07
2023-05-19T04:53:14.049Z,81.97
2023-05-19T04:54:14.208Z,82.07
2023-05-19T04:55:14.429Z,81.97
2023-05-19T04:56:14.622Z,81.83
2023-05-19T04:57:14.809Z,81.73
2023-05-19T04:58:13.991Z,81.52
2023-05-19T04:59:15.135Z,81.42
2023-05-19T05:00:14.435Z,81.42
2023-05-19T05:01:14.634Z,81.42
2023-05-19T05:02:14.887Z,81.42
2023-05-19T05:03:15.169Z,81.32
2023-05-19T05:04:19.375Z,81.21
2023-05-19T05:05:14.355Z,81.21
2023-05-19T05:06:14.545Z,81.11
2023-05-19T05:07:14.798Z,81.11
2023-05-19T05:08:13.924Z,81.11
2023-05-19T05:09:15.062Z,80.91
2023-05-19T05:10:15.267Z,80.87
2023-05-19T05:11:14.517Z,80.87
2023-05-19T05:12:14.679Z,80.77
2023-05-19T05:13:13.953Z,80.77
2023-05-19T05:14:14.058Z,80.77
2023-05-19T05:15:14.237Z,80.66
2023-05-19T05:16:14.514Z,80.56
2023-05-19T05:17:13.623Z,80.66
2023-05-19T05:18:13.863Z,80.66
2023-05-19T05:19:14.151Z,80.35
2023-05-19T05:20:14.278Z,80.25
2023-05-19T05:21:14.470Z,80.01
2023-05-19T05:22:16.746Z,79.70
2023-05-19T05:23:14.834Z,79.70
2023-05-19T05:24:14.038Z,79.60
2023-05-19T05:25:14.726Z,79.49
2023-05-19T05:26:14.453Z,79.46
2023-05-19T05:27:14.672Z,79.46
2023-05-19T05:28:16.863Z,79.25
2023-05-19T05:29:14.057Z,78.94
2023-05-19T05:30:14.246Z,78.94
2023-05-19T05:31:14.466Z,78.94
2023-05-19T05:32:13.694Z,78.81
2023-05-19T05:33:13.992Z,78.60
2023-05-19T05:34:14.052Z,78.60
2023-05-19T05:35:14.285Z,78.50
2023-05-19T05:36:14.475Z,78.70
2023-05-19T05:37:15.314Z,78.60
2023-05-19T05:38:14.852Z,78.70
2023-05-19T05:39:14.029Z,78.81
2023-05-19T05:40:14.242Z,78.70
2023-05-19T05:41:13.378Z,78.50
2023-05-19T05:42:13.550Z,78.39
2023-05-19T05:43:14.771Z,78.29
2023-05-19T05:44:13.937Z,78.05
2023-05-19T05:45:14.155Z,78.16
2023-05-19T05:46:13.367Z,78.16
2023-05-19T05:47:14.644Z,77.84
2023-05-19T05:48:16.032Z,77.64
2023-05-19T05:49:13.987Z,77.33
2023-05-19T05:50:14.188Z,77.44
2023-05-19T05:51:13.352Z,77.74
2023-05-19T05:52:14.537Z,78.05
2023-05-19T05:53:13.778Z,78.16
2023-05-19T05:54:13.911Z,77.71
2023-05-19T05:55:16.194Z,77.71
2023-05-19T05:56:14.257Z,77.71
2023-05-19T05:57:14.523Z,77.20
2023-05-19T05:58:13.697Z,77.09
2023-05-19T05:59:15.071Z,77.29
2023-05-19T06:00:13.094Z,77.36
2023-05-19T06:01:14.245Z,77.26
2023-05-19T06:02:13.659Z,77.06
2023-05-19T06:03:13.897Z,76.85
2023-05-19T06:04:13.928Z,76.65
2023-05-19T06:05:13.149Z,76.75
2023-05-19T06:06:13.258Z,76.54
2023-05-19T06:07:13.482Z,76.44
2023-05-19T06:08:13.718Z,76.44
2023-05-19T06:09:13.936Z,76.54
2023-05-19T06:10:13.176Z,76.44
2023-05-19T06:11:13.331Z,76.40
2023-05-19T06:12:13.529Z,75.99
2023-05-19T06:13:13.700Z,75.89
2023-05-19T06:14:13.881Z,75.79
2023-05-19T06:15:16.314Z,75.79
2023-05-19T06:16:13.249Z,75.65
2023-05-19T06:17:13.419Z,75.55
2023-05-19T06:18:17.689Z,75.35
2023-05-19T06:19:13.981Z,75.04
2023-05-19T06:20:14.004Z,74.63
2023-05-19T06:21:13.241Z,74.43
2023-05-19T06:22:13.372Z,74.53
2023-05-19T06:23:14.533Z,74.90
2023-05-19T06:24:14.773Z,74.69
2023-05-19T06:25:12.953Z,74.69
2023-05-19T06:26:13.159Z,74.39
2023-05-19T06:27:13.430Z,74.53
2023-05-19T06:28:14.497Z,74.32
2023-05-19T06:29:12.721Z,74.22
2023-05-19T06:30:13.954Z,74.02
2023-05-19T06:31:13.176Z,74.02
2023-05-19T06:32:14.293Z,74.08
2023-05-19T06:33:13.609Z,74.08
2023-05-19T06:34:12.781Z,73.78
2023-05-19T06:35:12.861Z,73.78
2023-05-19T06:36:16.122Z,73.88
2023-05-19T06:37:14.214Z,74.08
2023-05-19T06:38:14.410Z,74.46
2023-05-19T06:39:12.804Z,74.46
2023-05-19T06:40:12.803Z,74.26
2023-05-19T06:41:13.006Z,73.85
2023-05-19T06:42:13.199Z,73.81
2023-05-19T06:43:13.401Z,73.71
2023-05-19T06:44:12.541Z,73.61
2023-05-19T06:45:12.771Z,72.58
2023-05-19T06:46:12.959Z,71.77
2023-05-19T06:47:13.333Z,72.38
2023-05-19T06:48:13.348Z,72.99
2023-05-19T06:49:12.487Z,72.89
2023-05-19T06:50:12.858Z,72.86
2023-05-19T06:51:12.945Z,73.16
2023-05-19T06:52:13.087Z,73.27
2023-05-19T06:53:13.232Z,72.96
2023-05-19T06:54:12.395Z,73.06
2023-05-19T06:55:12.607Z,73.33
2023-05-19T06:56:12.833Z,73.44
2023-05-19T06:57:13.474Z,73.33
2023-05-19T06:58:13.193Z,72.72
2023-05-19T06:59:12.455Z,71.91
2023-05-19T07:00:13.986Z,72.00
2023-05-19T07:01:12.785Z,72.72
2023-05-19T07:02:13.075Z,71.50
2023-05-19T07:03:13.278Z,70.85
2023-05-19T07:04:12.357Z,70.75
2023-05-19T07:05:12.441Z,71.15
2023-05-19T07:06:12.632Z,71.36
2023-05-19T07:07:12.913Z,70.54
2023-05-19T07:08:16.235Z,71.22
2023-05-19T07:09:12.272Z,72.04
2023-05-19T07:10:17.498Z,71.94
2023-05-19T07:11:12.595Z,71.63
2023-05-19T07:12:12.755Z,71.60
2023-05-19T07:13:12.929Z,71.50
2023-05-19T07:14:13.164Z,70.89
2023-05-19T07:15:12.278Z,71.29
2023-05-19T07:16:12.447Z,71.70
2023-05-19T07:17:12.592Z,71.39
2023-05-19T07:18:13.793Z,71.29
2023-05-19T07:19:13.984Z,70.85
2023-05-19T07:20:12.167Z,70.14
2023-05-19T07:21:13.334Z,72.08
2023-05-19T07:22:13.437Z,71.87
2023-05-19T07:23:12.736Z,71.06
2023-05-19T07:24:13.795Z,70.21
2023-05-19T07:25:12.030Z,70.21
2023-05-19T07:26:12.197Z,70.31
2023-05-19T07:27:12.305Z,71.53
2023-05-19T07:28:16.717Z,70.61
2023-05-19T07:29:12.693Z,70.61
2023-05-19T07:30:12.816Z,70.61
2023-05-19T07:31:11.970Z,70.48
2023-05-19T07:32:12.498Z,69.87
2023-05-19T07:33:12.380Z,69.87
2023-05-19T07:34:13.599Z,69.76
2023-05-19T07:35:13.899Z,69.87
2023-05-19T07:36:12.009Z,69.73
2023-05-19T07:37:12.050Z,68.62
2023-05-19T07:38:12.226Z,68.21
2023-05-19T07:39:13.348Z,68.41
2023-05-19T07:40:13.510Z,66.78
2023-05-19T07:41:12.743Z,66.88
2023-05-19T07:42:11.860Z,67.60
2023-05-19T07:43:12.032Z,68.01
2023-05-19T07:44:12.245Z,69.43
2023-05-19T07:45:12.361Z,69.90
2023-05-19T07:46:12.699Z,68.88
2023-05-19T07:47:11.990Z,67.77
2023-05-19T07:48:11.941Z,68.38
2023-05-19T07:49:12.030Z,68.58
2023-05-19T07:50:12.277Z,69.29
2023-05-19T07:51:13.370Z,69.29
2023-05-19T07:52:12.550Z,69.49
2023-05-19T07:53:14.129Z,69.80
2023-05-19T07:54:11.834Z,69.87
2023-05-19T07:55:11.990Z,70.48
2023-05-19T07:56:12.208Z,69.36
2023-05-19T07:57:13.311Z,69.46
2023-05-19T07:58:13.435Z,69.77
2023-05-19T07:59:12.590Z,69.87
2023-05-19T08:00:12.808Z,69.64
2023-05-19T08:01:11.980Z,68.62
2023-05-19T08:02:13.899Z,68.32
2023-05-19T08:03:12.400Z,68.52
2023-05-19T08:04:12.921Z,68.92
2023-05-19T08:05:11.583Z,68.32
2023-05-19T08:06:11.750Z,68.62
2023-05-19T08:07:11.926Z,69.74
2023-05-19T08:08:12.381Z,69.40
2023-05-19T08:09:12.208Z,67.97
2023-05-19T08:10:11.343Z,67.77
2023-05-19T08:11:11.496Z,67.84
2023-05-19T08:12:11.704Z,67.94
2023-05-19T08:13:11.845Z,67.20
2023-05-19T08:14:12.229Z,66.60
2023-05-19T08:15:12.153Z,67.41
2023-05-19T08:16:12.291Z,66.60
2023-05-19T08:17:11.416Z,66.08
2023-05-19T08:18:11.548Z,65.95
2023-05-19T08:19:11.681Z,66.36
2023-05-19T08:20:11.886Z,65.34
2023-05-19T08:21:11.944Z,64.13
2023-05-19T08:22:12.102Z,64.33
2023-05-19T08:23:11.265Z,65.75
2023-05-19T08:24:11.400Z,66.05
2023-05-19T08:25:15.736Z,66.05
2023-05-19T08:26:11.742Z,65.34
2023-05-19T08:27:11.875Z,65.27
2023-05-19T08:28:12.068Z,67.00
2023-05-19T08:29:11.150Z,66.86
2023-05-19T08:30:11.280Z,65.85
2023-05-19T08:31:11.974Z,66.16
2023-05-19T08:32:13.215Z,65.04
2023-05-19T08:33:11.892Z,65.04
2023-05-19T08:34:11.889Z,65.52
2023-05-19T08:35:15.500Z,65.62
2023-05-19T08:36:11.162Z,66.33
2023-05-19T08:37:11.348Z,66.80
2023-05-19T08:38:11.473Z,67.51
2023-05-19T08:39:11.604Z,65.66
2023-05-19T08:40:11.803Z,64.64
2023-05-19T08:41:11.933Z,64.21
2023-05-19T08:42:11.047Z,62.29
2023-05-19T08:43:11.212Z,62.59
2023-05-19T08:44:11.350Z,62.99
2023-05-19T08:45:11.466Z,59.45
2023-05-19T08:46:11.615Z,62.08
2023-05-19T08:47:12.776Z,61.47
2023-05-19T08:48:11.813Z,62.08
2023-05-19T08:49:11.039Z,62.89
2023-05-19T08:50:11.169Z,61.58
2023-05-19T08:51:11.286Z,60.33
2023-05-19T08:52:12.398Z,58.71
2023-05-19T08:53:24.681Z,60.94
2023-05-19T08:54:12.691Z,60.84
2023-05-19T08:55:10.750Z,61.35
2023-05-19T08:56:11.017Z,60.43
2023-05-19T08:57:11.093Z,61.14
2023-05-19T08:58:16.385Z,61.85
2023-05-19T08:59:11.342Z,61.35
2023-05-19T09:00:12.063Z,59.70
2023-05-19T09:01:15.803Z,58.28
2023-05-19T09:02:10.690Z,59.09
2023-05-19T09:03:22.796Z,59.36
2023-05-19T09:04:12.001Z,58.36
2023-05-19T09:05:11.243Z,57.37
2023-05-19T09:06:14.397Z,58.48
2023-05-19T09:07:12.355Z,59.09
2023-05-19T09:08:12.509Z,59.59
2023-05-19T09:09:10.677Z,60.50
2023-05-19T09:10:11.747Z,60.33
2023-05-19T09:11:11.903Z,59.12
2023-05-19T09:12:11.115Z,59.72
2023-05-19T09:13:11.203Z,61.14
2023-05-19T09:14:17.467Z,61.55
2023-05-19T09:15:11.474Z,59.63
2023-05-19T09:16:10.616Z,58.61
2023-05-19T09:17:10.775Z,57.29
2023-05-19T09:18:10.990Z,57.50
2023-05-19T09:19:12.025Z,56.59
2023-05-19T09:20:11.164Z,56.69
2023-05-19T09:21:11.336Z,57.47
2023-05-19T09:22:11.427Z,57.37
2023-05-19T09:23:11.481Z,58.69
2023-05-19T09:24:10.722Z,58.48
2023-05-19T09:25:11.765Z,58.48
2023-05-19T09:26:17.088Z,57.57
2023-05-19T09:27:12.049Z,57.87
2023-05-19T09:28:15.364Z,57.95
2023-05-19T09:29:10.334Z,57.95
2023-05-19T09:30:10.527Z,58.45
2023-05-19T09:31:11.561Z,58.23
2023-05-19T09:32:11.766Z,58.43
2023-05-19T09:33:10.931Z,57.59
2023-05-19T09:34:12.027Z,57.29
2023-05-19T09:35:11.139Z,55.54
2023-05-19T09:36:17.496Z,55.65
2023-05-19T09:37:10.373Z,55.14
2023-05-19T09:38:10.515Z,54.74
2023-05-19T09:39:10.652Z,54.53
2023-05-19T09:40:13.064Z,54.03
2023-05-19T09:41:10.958Z,54.23
2023-05-19T09:42:11.051Z,54.43
2023-05-19T09:43:10.162Z,55.92
2023-05-19T09:44:10.274Z,55.21
2023-05-19T09:45:11.383Z,54.71
2023-05-19T09:46:12.130Z,53.30
2023-05-19T09:47:10.713Z,52.29
2023-05-19T09:48:11.746Z,52.29
2023-05-19T09:49:10.950Z,54.31
2023-05-19T09:50:10.033Z,55.59
2023-05-19T09:51:11.176Z,54.89
2023-05-19T09:52:12.680Z,54.38
2023-05-19T09:53:10.465Z,55.49
2023-05-19T09:54:11.507Z,54.08
2023-05-19T09:55:11.674Z,51.73
2023-05-19T09:56:10.771Z,50.12
2023-05-19T09:57:10.874Z,50.73
2023-05-19T09:58:12.669Z,52.11
2023-05-19T09:59:34.971Z,54.23
2023-05-19T10:00:17.800Z,53.70
2023-05-19T10:01:14.511Z,51.28
2023-05-19T10:02:12.531Z,51.48
2023-05-19T10:03:10.665Z,51.28
2023-05-19T10:04:12.855Z,51.18
2023-05-19T10:05:16.067Z,50.17
2023-05-19T10:06:18.156Z,48.94
2023-05-19T10:07:10.067Z,49.24
2023-05-19T10:08:10.189Z,49.44
2023-05-19T10:09:10.324Z,50.65
2023-05-19T10:10:11.487Z,51.93
2023-05-19T10:11:10.620Z,49.32
2023-05-19T10:12:11.626Z,49.62
2023-05-19T10:13:10.705Z,50.33
2023-05-19T10:14:09.850Z,47.31
2023-05-19T10:15:12.030Z,48.52
2023-05-19T10:16:11.226Z,50.02
2023-05-19T10:17:10.179Z,49.93
2023-05-19T10:18:11.294Z,48.69
2023-05-19T10:19:10.457Z,48.59
2023-05-19T10:20:10.506Z,46.18
2023-05-19T10:21:11.541Z,47.49
2023-05-19T10:22:09.767Z,47.06
2023-05-19T10:23:09.756Z,44.57
2023-05-19T10:24:11.487Z,44.49
2023-05-19T10:25:10.913Z,46.80
2023-05-19T10:26:10.078Z,49.93
2023-05-19T10:27:10.206Z,48.72
2023-05-19T10:28:10.298Z,50.33
2023-05-19T10:29:38.105Z,51.26
2023-05-19T10:30:11.556Z,51.46
2023-05-19T10:31:09.569Z,49.85
2023-05-19T10:32:09.748Z,47.53
2023-05-19T10:33:09.870Z,46.73
2023-05-19T10:34:10.916Z,47.53
2023-05-19T10:35:09.990Z,47.13
2023-05-19T10:36:10.108Z,47.43
2023-05-19T10:37:10.193Z,49.15
2023-05-19T10:38:10.398Z,49.85
2023-05-19T10:39:10.445Z,49.24
2023-05-19T10:40:10.482Z,49.02
2023-05-19T10:41:10.608Z,48.64
2023-05-19T10:42:09.752Z,49.15
2023-05-19T10:43:10.944Z,48.52
2023-05-19T10:44:12.054Z,50.40
2023-05-19T10:45:10.091Z,48.97
2023-05-19T10:46:10.202Z,48.47
2023-05-19T10:47:09.292Z,47.64
2023-05-19T10:48:10.492Z,46.44
2023-05-19T10:49:10.522Z,46.41
2023-05-19T10:50:10.555Z,44.71
2023-05-19T10:51:11.161Z,43.58
2023-05-19T10:52:12.828Z,44.71
2023-05-19T10:53:10.882Z,44.60
2023-05-19T10:54:12.172Z,42.40
2023-05-19T10:55:10.261Z,43.52
2023-05-19T10:56:09.267Z,44.35
2023-05-19T10:57:10.429Z,46.54
2023-05-19T10:58:09.473Z,44.63
2023-05-19T10:59:10.517Z,45.63
2023-05-19T11:00:11.886Z,47.52
2023-05-19T11:01:10.746Z,47.52
2023-05-19T11:02:09.957Z,44.60
2023-05-19T11:03:10.063Z,44.81
2023-05-19T11:04:09.152Z,45.69
2023-05-19T11:05:12.189Z,45.81
2023-05-19T11:06:09.325Z,45.71
2023-05-19T11:07:09.409Z,46.51
2023-05-19T11:08:10.466Z,46.09
2023-05-19T11:09:09.628Z,47.47
2023-05-19T11:10:09.738Z,46.27
2023-05-19T11:11:10.941Z,46.95
2023-05-19T11:12:08.910Z,46.95
2023-05-19T11:13:12.054Z,43.74
2023-05-19T11:14:09.112Z,43.42
2023-05-19T11:15:10.169Z,43.72
2023-05-19T11:16:10.322Z,45.42
2023-05-19T11:17:10.570Z,45.83
2023-05-19T11:18:09.571Z,46.42
2023-05-19T11:19:10.725Z,45.20
2023-05-19T11:20:09.752Z,43.80
2023-05-19T11:21:12.870Z,44.90
2023-05-19T11:22:09.829Z,42.69
2023-05-19T11:23:09.152Z,41.89
2023-05-19T11:24:12.063Z,43.70
2023-05-19T11:25:10.135Z,43.70
2023-05-19T11:26:13.367Z,43.38
2023-05-19T11:27:11.408Z,43.98
2023-05-19T11:28:11.559Z,43.38
2023-05-19T11:29:10.468Z,44.86
2023-05-19T11:30:10.573Z,44.06
2023-05-19T11:31:09.637Z,43.05
2023-05-19T11:32:20.276Z,41.15
2023-05-19T11:33:09.842Z,42.18
2023-05-19T11:34:28.957Z,42.68
2023-05-19T11:35:09.028Z,42.16
2023-05-19T11:36:33.029Z,42.47
2023-05-19T11:37:09.253Z,43.38
2023-05-19T11:38:10.313Z,42.68
2023-05-19T11:39:40.589Z,42.69
2023-05-19T11:40:09.561Z,44.18
2023-05-19T11:41:08.554Z,42.88
2023-05-19T11:42:15.901Z,42.57
2023-05-19T11:43:17.035Z,42.47
2023-05-19T11:44:50.344Z,42.46
2023-05-19T11:45:08.961Z,41.55
2023-05-19T11:46:09.068Z,42.05
2023-05-19T11:47:28.843Z,41.74
2023-05-19T11:48:09.271Z,40.73
2023-05-19T11:49:32.156Z,42.71
2023-05-19T11:50:08.449Z,41.91
2023-05-19T11:51:08.509Z,42.21
2023-05-19T11:52:09.541Z,40.83
2023-05-19T11:53:11.742Z,41.43
2023-05-19T11:54:12.881Z,41.52
2023-05-19T11:55:14.172Z,40.71
2023-05-19T11:56:16.302Z,39.31
2023-05-19T11:57:10.101Z,40.81
2023-05-19T11:58:09.284Z,42.21
2023-05-19T11:59:21.797Z,42.21
2023-05-19T12:00:08.485Z,42.61
2023-05-19T12:01:28.314Z,42.32
2023-05-19T12:02:30.419Z,42.29
2023-05-19T12:03:09.136Z,42.29
2023-05-19T12:05:09.045Z,41.47
2023-05-19T12:05:15.386Z,41.38
2023-05-19T12:06:15.450Z,40.06
2023-05-19T12:07:42.482Z,40.75
2023-05-19T12:08:15.596Z,40.56
2023-05-19T12:09:17.818Z,39.76
2023-05-19T12:10:21.042Z,39.65
2023-05-19T12:11:23.243Z,38.44
2023-05-19T12:12:15.097Z,38.74
2023-05-19T12:13:28.811Z,39.43
2023-05-19T12:14:15.345Z,38.24
2023-05-19T12:16:35.395Z,35.83
2023-05-19T12:16:41.483Z,35.23
2023-05-19T12:17:41.588Z,34.63
2023-05-19T12:19:41.778Z,39.14
2023-05-19T12:20:07.602Z,39.64
2023-05-19T12:21:07.754Z,39.94
2023-05-19T12:22:08.812Z,38.84
2023-05-19T12:23:07.914Z,37.34
2023-05-19T12:24:07.992Z,38.64
2023-05-19T12:25:08.172Z,37.84
2023-05-19T12:26:08.202Z,36.52
2023-05-19T12:27:08.405Z,36.93
2023-05-19T12:28:07.395Z,38.50
2023-05-19T12:29:07.471Z,37.51
2023-05-19T12:30:07.565Z,37.40
2023-05-19T12:31:07.704Z,36.71
2023-05-19T12:32:07.797Z,35.21
2023-05-19T12:33:07.873Z,36.21
2023-05-19T12:34:07.928Z,36.51
2023-05-19T12:35:08.026Z,35.01
2023-05-19T12:36:08.104Z,36.02
2023-05-19T12:37:08.158Z,35.42
2023-05-19T12:37:47.518Z,34.83
2023-05-19T12:38:47.615Z,35.71
2023-05-19T12:39:47.680Z,37.21
2023-05-19T12:40:47.768Z,37.02
2023-05-19T12:41:47.949Z,38.80
2023-05-19T12:42:48.972Z,38.00
2023-05-19T12:43:49.000Z,37.40
2023-05-19T12:45:03.243Z,36.80
2023-05-19T12:45:47.182Z,37.10
2023-05-19T12:46:47.260Z,37.90
2023-05-19T12:47:47.532Z,38.68
2023-05-19T12:48:47.450Z,38.89
2023-05-19T12:49:48.489Z,38.37
2023-05-19T12:50:47.648Z,37.77
2023-05-19T12:51:47.738Z,37.87
2023-05-19T12:52:47.812Z,35.38